createdAt,value
2023-01-11T00:00:00.519Z,84.47
2023-01-11T00:03:07.830Z,84.62
2023-01-11T00:06:11.780Z,84.24
2023-01-11T00:09:16.118Z,84.14
2023-01-11T00:12:18.918Z,84.23
2023-01-11T00:15:21.801Z,84.39
2023-01-11T00:18:24.521Z,84.60
2023-01-11T00:21:27.505Z,84.48
2023-01-11T00:24:30.315Z,84.42
2023-01-11T00:27:33.108Z,84.26
2023-01-11T00:30:36.032Z,84.43
2023-01-11T00:33:38.859Z,84.29
2023-01-11T00:36:44.373Z,84.30
2023-01-11T00:39:47.152Z,84.05
2023-01-11T00:43:08.603Z,84.05
2023-01-11T00:46:30.181Z,84.51
2023-01-11T00:49:33.577Z,84.52
2023-01-11T00:52:36.446Z,84.53
2023-01-11T00:55:39.169Z,84.19
2023-01-11T00:58:41.895Z,84.38
2023-01-11T01:01:47.128Z,84.09
2023-01-11T01:04:49.965Z,84.13
2023-01-11T01:07:53.302Z,84.14
2023-01-11T01:10:56.055Z,84.26
2023-01-11T01:14:17.571Z,84.14
2023-01-11T01:17:20.296Z,84.10
2023-01-11T01:20:24.589Z,83.99
2023-01-11T01:23:27.322Z,84.39
2023-01-11T01:26:30.043Z,84.42
2023-01-11T01:29:32.803Z,84.54
2023-01-11T01:32:35.664Z,84.14
2023-01-11T01:35:38.644Z,84.08
2023-01-11T01:38:41.422Z,84.20
2023-01-11T01:41:44.343Z,84.34
2023-01-11T01:45:00.858Z,84.48
2023-01-11T01:48:06.802Z,84.21
2023-01-11T01:51:13.323Z,84.63
2023-01-11T01:54:24.611Z,84.38
2023-01-11T01:57:31.619Z,84.36
2023-01-11T02:00:34.599Z,84.68
2023-01-11T02:03:37.349Z,84.61
2023-01-11T02:06:41.623Z,84.38
2023-01-11T02:09:57.170Z,84.10
2023-01-11T02:13:05.470Z,84.04
2023-01-11T02:16:08.497Z,84.35
2023-01-11T02:19:37.845Z,84.23
2023-01-11T02:23:07.431Z,84.57
2023-01-11T02:26:44.536Z,84.62
2023-01-11T02:30:16.719Z,84.55
2023-01-11T02:33:25.547Z,84.69
2023-01-11T02:36:59.225Z,84.78
2023-01-11T02:40:31.021Z,85.00
2023-01-11T02:44:06.844Z,85.01
2023-01-11T02:47:18.315Z,85.11
2023-01-11T02:50:32.934Z,85.11
2023-01-11T02:53:59.068Z,85.08
2023-01-11T02:57:03.681Z,85.09
2023-01-11T03:00:09.892Z,84.99
2023-01-11T03:03:22.141Z,85.14
2023-01-11T03:06:33.257Z,84.94
2023-01-11T03:09:56.311Z,84.74
2023-01-11T03:13:33.682Z,84.91
2023-01-11T03:17:12.387Z,84.77
2023-01-11T03:20:25.643Z,84.91
2023-01-11T03:23:51.376Z,84.98
2023-01-11T03:27:22.981Z,84.85
2023-01-11T03:30:35.479Z,84.71
2023-01-11T03:33:47.850Z,84.84
2023-01-11T03:37:07.966Z,84.76
2023-01-11T03:40:44.838Z,84.77
2023-01-11T03:43:50.108Z,84.58
2023-01-11T03:47:01.276Z,84.84
2023-01-11T03:50:11.013Z,84.76
2023-01-11T03:53:16.935Z,84.71
2023-01-11T03:56:25.250Z,84.79
2023-01-11T03:59:28.280Z,84.59
2023-01-11T04:02:39.219Z,84.65
2023-01-11T04:05:45.110Z,84.88
2023-01-11T04:08:47.943Z,84.90
2023-01-11T04:11:50.780Z,85.07
2023-01-11T04:14:53.563Z,85.00
2023-01-11T04:17:56.382Z,85.07
2023-01-11T04:20:59.566Z,84.96
2023-01-11T04:24:02.313Z,84.97
2023-01-11T04:27:05.030Z,85.03
2023-01-11T04:30:08.665Z,84.83
2023-01-11T04:33:13.340Z,84.80
2023-01-11T04:36:16.216Z,84.82
2023-01-11T04:39:19.090Z,84.69
2023-01-11T04:42:22.016Z,84.53
2023-01-11T04:45:24.826Z,84.53
2023-01-11T04:48:27.605Z,84.46
2023-01-11T04:51:30.397Z,84.53
2023-01-11T04:54:33.162Z,84.37
2023-01-11T04:57:36.489Z,84.48
2023-01-11T05:00:39.259Z,84.49
2023-01-11T05:03:42.536Z,84.29
2023-01-11T05:06:45.965Z,84.53
2023-01-11T05:09:48.803Z,84.84
2023-01-11T05:12:51.587Z,84.98
2023-01-11T05:15:54.352Z,84.40
2023-01-11T05:18:59.510Z,84.38
2023-01-11T05:22:02.236Z,84.36
2023-01-11T05:25:05.491Z,83.95
2023-01-11T05:28:08.247Z,84.00
2023-01-11T05:31:11.439Z,84.04
2023-01-11T05:34:14.460Z,83.81
2023-01-11T05:37:17.239Z,83.80
2023-01-11T05:40:20.022Z,83.75
2023-01-11T05:43:22.821Z,83.92
2023-01-11T05:46:26.794Z,83.83
2023-01-11T05:49:31.840Z,83.76
2023-01-11T05:52:34.564Z,83.80
2023-01-11T05:55:37.541Z,83.57
2023-01-11T05:58:40.315Z,83.82
2023-01-11T06:01:43.478Z,84.02
2023-01-11T06:04:46.235Z,83.96
2023-01-11T06:07:49.123Z,83.81
2023-01-11T06:10:53.424Z,83.73
2023-01-11T06:13:56.320Z,83.87
2023-01-11T06:17:02.435Z,84.05
2023-01-11T06:20:06.293Z,84.09
2023-01-11T06:23:09.083Z,83.84
2023-01-11T06:26:15.121Z,83.95
2023-01-11T06:29:18.050Z,83.81
2023-01-11T06:32:20.809Z,83.77
2023-01-11T06:35:23.606Z,83.89
2023-01-11T06:38:26.922Z,83.86
2023-01-11T06:41:29.742Z,83.88
2023-01-11T06:44:32.501Z,83.74
2023-01-11T06:47:35.244Z,83.67
2023-01-11T06:50:38.022Z,83.87
2023-01-11T06:53:44.236Z,84.11
2023-01-11T06:56:46.943Z,83.65
2023-01-11T06:59:49.713Z,83.62
2023-01-11T07:02:52.635Z,83.70
2023-01-11T07:05:57.193Z,83.60
2023-01-11T07:08:59.943Z,83.95
2023-01-11T07:12:02.667Z,83.90
2023-01-11T07:15:07.930Z,83.65
2023-01-11T07:18:11.755Z,83.76
2023-01-11T07:21:14.478Z,83.56
2023-01-11T07:24:17.312Z,83.67
2023-01-11T07:27:20.392Z,83.43
2023-01-11T07:30:23.515Z,83.72
2023-01-11T07:33:26.647Z,83.73
2023-01-11T07:36:36.072Z,83.84
2023-01-11T07:39:43.929Z,83.80
2023-01-11T07:43:10.496Z,83.80
2023-01-11T07:46:13.418Z,83.69
2023-01-11T07:49:16.257Z,83.42
2023-01-11T07:52:19.528Z,83.55
2023-01-11T07:55:22.590Z,83.73
2023-01-11T07:58:25.364Z,83.65
2023-01-11T08:01:28.271Z,83.97
2023-01-11T08:04:31.012Z,83.69
2023-01-11T08:07:33.838Z,83.28
2023-01-11T08:10:36.626Z,83.38
2023-01-11T08:13:58.243Z,83.38
2023-01-11T08:17:01.178Z,83.38
2023-01-11T08:20:04.652Z,83.16
2023-01-11T08:23:09.801Z,83.14
2023-01-11T08:26:17.057Z,82.86
2023-01-11T08:29:19.860Z,82.83
2023-01-11T08:32:22.734Z,82.97
2023-01-11T08:35:25.800Z,82.98
2023-01-11T08:38:28.796Z,83.10
2023-01-11T08:41:32.741Z,83.16
2023-01-11T08:44:35.562Z,82.99
2023-01-11T08:47:38.482Z,82.73
2023-01-11T08:50:41.309Z,82.59
2023-01-11T08:53:44.209Z,82.92
2023-01-11T08:56:47.083Z,82.55
2023-01-11T08:59:49.794Z,82.29
2023-01-11T09:02:52.591Z,82.48
2023-01-11T09:05:56.968Z,82.55
2023-01-11T09:08:59.672Z,82.75
2023-01-11T09:12:05.515Z,82.41
2023-01-11T09:15:09.738Z,82.04
2023-01-11T09:18:13.679Z,81.92
2023-01-11T09:21:17.371Z,81.93
2023-01-11T09:24:20.184Z,81.85
2023-01-11T09:27:23.036Z,81.99
2023-01-11T09:30:25.926Z,82.05
2023-01-11T09:33:28.973Z,82.08
2023-01-11T09:36:33.164Z,81.97
2023-01-11T09:39:37.991Z,81.83
2023-01-11T09:42:43.097Z,81.73
2023-01-11T09:45:47.057Z,81.89
2023-01-11T09:48:58.530Z,81.74
2023-01-11T09:52:24.560Z,81.72
2023-01-11T09:55:37.526Z,81.50
2023-01-11T09:58:51.024Z,81.58
2023-01-11T10:02:05.664Z,81.32
2023-01-11T10:05:25.953Z,81.16
2023-01-11T10:18:33.345Z,81.00
2023-01-11T10:19:42.291Z,80.54
2023-01-11T10:22:48.305Z,80.45
2023-01-11T10:25:56.571Z,80.52
2023-01-11T10:29:17.462Z,80.13
2023-01-11T10:32:48.238Z,80.06
2023-01-11T10:36:20.988Z,79.93
2023-01-11T10:39:51.915Z,79.98
2023-01-11T10:43:03.269Z,79.83
2023-01-11T10:46:24.103Z,79.84
2023-01-11T10:49:39.760Z,79.77
2023-01-11T10:53:00.161Z,79.55
2023-01-11T10:56:12.142Z,79.22
2023-01-11T10:59:43.983Z,79.29
2023-01-11T11:03:17.467Z,78.93
2023-01-11T11:06:34.016Z,78.91
2023-01-11T11:10:04.925Z,78.55
2023-01-11T11:13:43.669Z,78.25
2023-01-11T11:16:46.472Z,78.26
2023-01-11T11:19:49.364Z,77.94
2023-01-11T11:22:54.102Z,78.14
2023-01-11T11:26:01.172Z,77.96
2023-01-11T11:29:07.904Z,77.95
2023-01-11T11:32:20.846Z,77.48
2023-01-11T11:35:42.182Z,77.41
2023-01-11T11:39:27.348Z,77.42
2023-01-11T11:42:30.361Z,77.66
2023-01-11T11:45:33.202Z,77.39
2023-01-11T11:48:36.186Z,77.16
2023-01-11T11:51:41.203Z,77.16
2023-01-11T11:54:57.167Z,77.09
2023-01-11T11:58:06.210Z,76.72
2023-01-11T12:01:26.316Z,76.56
2023-01-11T12:04:35.631Z,76.16
2023-01-11T12:07:54.672Z,75.77
2023-01-11T12:11:04.230Z,75.67
2023-01-11T12:14:19.184Z,76.49
2023-01-11T12:17:24.793Z,75.64
2023-01-11T12:20:31.078Z,76.26
2023-01-11T12:23:33.961Z,75.70
2023-01-11T12:27:08.238Z,75.07
2023-01-11T12:30:20.550Z,75.20
2023-01-11T12:34:01.798Z,74.82
2023-01-11T12:37:23.316Z,74.63
2023-01-11T12:40:39.799Z,74.77
2023-01-11T12:44:11.106Z,74.61
2023-01-11T12:47:39.785Z,74.80
2023-01-11T12:51:41.416Z,74.53
2023-01-11T12:55:15.217Z,74.39
2023-01-11T12:58:30.811Z,74.38
2023-01-11T13:01:43.539Z,74.26
2023-01-11T13:05:12.544Z,74.28
2023-01-11T13:08:18.033Z,74.12
2023-01-11T13:11:37.863Z,74.27
2023-01-11T13:14:51.877Z,74.24
2023-01-11T13:18:07.703Z,74.07
2023-01-11T13:21:28.757Z,74.10
2023-01-11T13:24:33.066Z,74.16
2023-01-11T13:27:35.837Z,73.94
2023-01-11T13:30:38.832Z,74.00
2023-01-11T13:33:49.352Z,74.08
2023-01-11T13:36:59.193Z,73.95
2023-01-11T13:40:17.045Z,73.84
2023-01-11T13:43:37.357Z,73.80
2023-01-11T13:46:49.993Z,73.84
2023-01-11T13:50:31.099Z,73.89
2023-01-11T13:53:43.895Z,74.15
2023-01-11T13:56:58.246Z,74.05
2023-01-11T14:00:29.508Z,74.30
2023-01-11T14:03:55.874Z,74.31
2023-01-11T14:07:10.779Z,74.48
2023-01-11T14:10:41.514Z,74.12
2023-01-11T14:14:13.277Z,74.47
2023-01-11T14:17:25.113Z,74.70
2023-01-11T14:21:03.809Z,74.80
2023-01-11T14:24:08.471Z,74.84
2023-01-11T14:27:47.576Z,74.93
2023-01-11T14:31:18.008Z,75.11
2023-01-11T14:34:36.317Z,75.07
2023-01-11T14:38:06.918Z,75.39
2023-01-11T14:41:21.866Z,75.22
2023-01-11T14:44:43.563Z,75.39
2023-01-11T14:48:24.536Z,75.28
2023-01-11T14:51:40.523Z,75.75
2023-01-11T14:54:47.735Z,75.95
2023-01-11T14:57:56.278Z,75.77
2023-01-11T15:00:59.049Z,75.77
2023-01-11T15:04:01.779Z,76.02
2023-01-11T15:07:25.152Z,76.10
2023-01-11T15:10:30.923Z,76.01
2023-01-11T15:13:44.782Z,76.26
2023-01-11T15:17:11.060Z,76.29
2023-01-11T15:20:17.776Z,76.51
2023-01-11T15:23:21.320Z,76.48
2023-01-11T15:26:26.628Z,76.83
2023-01-11T15:29:34.201Z,77.38
2023-01-11T15:32:37.290Z,77.03
2023-01-11T15:35:40.097Z,76.81
2023-01-11T15:38:52.234Z,76.84
2023-01-11T15:42:16.504Z,76.62
2023-01-11T15:45:28.312Z,76.96
2023-01-11T15:48:38.049Z,77.10
2023-01-11T15:52:18.870Z,77.24
2023-01-11T15:55:40.204Z,77.25
2023-01-11T15:59:04.995Z,77.34
2023-01-11T16:02:22.744Z,77.47
2023-01-11T16:05:29.519Z,77.46
2023-01-11T16:08:40.125Z,77.47
2023-01-11T16:12:02.098Z,77.68
2023-01-11T16:15:35.647Z,77.47
2023-01-11T16:18:44.639Z,77.83
2023-01-11T16:21:51.122Z,77.70
2023-01-11T16:25:01.486Z,77.78
2023-01-11T16:28:05.972Z,77.97
2023-01-11T16:31:08.877Z,77.69
2023-01-11T16:34:16.903Z,77.67
2023-01-11T16:37:25.518Z,77.82
2023-01-11T16:40:40.403Z,77.74
2023-01-11T16:43:50.433Z,77.74
2023-01-11T16:47:05.347Z,77.77
2023-01-11T16:50:11.389Z,77.63
2023-01-11T16:53:15.968Z,77.86
2023-01-11T16:56:22.592Z,77.86
2023-01-11T16:59:30.715Z,77.85
2023-01-11T17:02:40.166Z,77.95
2023-01-11T17:05:53.516Z,77.77
2023-01-11T17:08:59.934Z,77.86
2023-01-11T17:12:02.833Z,77.99
2023-01-11T17:15:28.727Z,77.86
2023-01-11T17:18:31.916Z,77.90
2023-01-11T17:21:34.715Z,77.81
2023-01-11T17:24:42.284Z,78.18
2023-01-11T17:27:53.567Z,78.00
2023-01-11T17:30:57.291Z,77.95
2023-01-11T17:34:15.985Z,78.14
2023-01-11T17:37:19.598Z,78.09
2023-01-11T17:40:26.962Z,78.23
2023-01-11T17:43:49.236Z,78.37
2023-01-11T17:46:52.052Z,78.44
2023-01-11T17:49:57.742Z,78.23
2023-01-11T17:53:14.226Z,78.34
2023-01-11T17:56:32.573Z,78.17
2023-01-11T17:59:35.551Z,78.26
2023-01-11T18:02:39.763Z,78.32
2023-01-11T18:05:43.296Z,78.46
2023-01-11T18:08:49.729Z,78.54
2023-01-11T18:11:53.967Z,78.56
2023-01-11T18:14:59.714Z,78.27
2023-01-11T18:18:03.200Z,78.50
2023-01-11T18:21:25.858Z,78.26
2023-01-11T18:24:33.823Z,78.48
2023-01-11T18:27:38.182Z,78.56
2023-01-11T18:30:46.653Z,78.29
2023-01-11T18:33:49.478Z,78.40
2023-01-11T18:36:58.647Z,78.57
2023-01-11T18:40:03.603Z,78.55
2023-01-11T18:43:06.500Z,78.62
2023-01-11T18:46:09.623Z,78.32
2023-01-11T18:49:12.465Z,78.55
2023-01-11T18:52:16.256Z,78.68
2023-01-11T18:55:19.007Z,78.61
2023-01-11T18:58:21.881Z,78.56
2023-01-11T19:01:25.118Z,78.61
2023-01-11T19:04:28.068Z,78.40
2023-01-11T19:07:30.919Z,78.27
2023-01-11T19:10:34.603Z,78.34
2023-01-11T19:13:37.519Z,78.26
2023-01-11T19:16:41.491Z,78.09
2023-01-11T19:19:44.350Z,78.18
2023-01-11T19:22:47.148Z,78.98
2023-01-11T19:25:57.737Z,78.45
2023-01-11T19:29:00.495Z,78.63
2023-01-11T19:32:03.387Z,78.41
2023-01-11T19:35:08.289Z,78.35
2023-01-11T19:38:11.336Z,78.52
2023-01-11T19:41:16.682Z,78.50
2023-01-11T19:44:20.724Z,78.39
2023-01-11T19:47:23.625Z,78.32
2023-01-11T19:50:26.474Z,78.56
2023-01-11T19:53:30.742Z,78.15
2023-01-11T19:56:33.979Z,78.14
2023-01-11T19:59:36.748Z,78.15
2023-01-11T20:02:39.959Z,78.34
2023-01-11T20:05:42.702Z,78.41
2023-01-11T20:08:45.425Z,78.40
2023-01-11T20:11:50.701Z,78.17
2023-01-11T20:14:56.935Z,78.47
2023-01-11T20:18:01.016Z,78.47
2023-01-11T20:21:04.146Z,78.37
2023-01-11T20:24:07.348Z,78.32
2023-01-11T20:27:11.292Z,78.51
2023-01-11T20:30:15.298Z,78.49
2023-01-11T20:33:18.232Z,78.55
2023-01-11T20:36:21.520Z,78.44
2023-01-11T20:39:25.525Z,78.51
2023-01-11T20:42:28.298Z,78.56
2023-01-11T20:45:32.247Z,78.54
2023-01-11T20:48:35.991Z,78.46
2023-01-11T20:51:39.253Z,78.53
2023-01-11T20:54:42.270Z,78.54
2023-01-11T20:57:46.489Z,78.68
2023-01-11T21:00:49.349Z,78.61
2023-01-11T21:03:52.787Z,78.63
2023-01-11T21:06:56.859Z,78.72
2023-01-11T21:09:59.629Z,78.49
2023-01-11T21:13:04.044Z,78.58
2023-01-11T21:16:15.253Z,78.56
2023-01-11T21:19:18.081Z,78.33
2023-01-11T21:22:20.842Z,78.61
2023-01-11T21:25:23.614Z,78.62
2023-01-11T21:28:26.407Z,78.94
2023-01-11T21:31:32.119Z,78.98
2023-01-11T21:34:35.034Z,79.28
2023-01-11T21:37:37.783Z,79.35
2023-01-11T21:40:40.535Z,79.13
2023-01-11T21:43:44.906Z,79.40
2023-01-11T21:46:48.427Z,79.32
2023-01-11T21:49:51.362Z,79.23
2023-01-11T21:52:55.271Z,79.18
2023-01-11T21:56:08.330Z,79.32
2023-01-11T21:59:11.878Z,79.32
2023-01-11T22:02:14.585Z,79.39
2023-01-11T22:05:17.521Z,79.37
2023-01-11T22:08:20.486Z,79.47
2023-01-11T22:11:23.212Z,79.40
2023-01-11T22:14:25.969Z,79.27
2023-01-11T22:17:28.680Z,79.55
2023-01-11T22:20:31.422Z,79.63
2023-01-11T22:23:35.238Z,79.49
2023-01-11T22:26:39.344Z,79.77
2023-01-11T22:29:45.487Z,79.73
2023-01-11T22:32:48.237Z,80.09
2023-01-11T22:35:55.211Z,79.96
2023-01-11T22:38:57.936Z,79.84
2023-01-11T22:42:00.697Z,80.03
2023-01-11T22:45:05.149Z,80.13
2023-01-11T22:48:07.869Z,80.30
2023-01-11T22:51:12.061Z,80.30
2023-01-11T22:54:15.110Z,80.65
2023-01-11T22:57:17.900Z,80.53
2023-01-11T23:00:21.193Z,80.93
2023-01-11T23:03:24.554Z,80.94
2023-01-11T23:06:30.698Z,81.10
2023-01-11T23:09:33.428Z,81.06
2023-01-11T23:12:54.719Z,81.05
2023-01-11T23:15:57.478Z,80.99
2023-01-11T23:19:01.096Z,81.24
2023-01-11T23:22:04.745Z,81.14
2023-01-11T23:25:08.196Z,81.26
2023-01-11T23:28:10.960Z,81.52
2023-01-11T23:31:16.941Z,81.76
2023-01-11T23:34:19.727Z,81.63
2023-01-11T23:37:22.525Z,81.84
2023-01-11T23:40:25.437Z,81.87
2023-01-11T23:43:28.147Z,81.97
2023-01-11T23:46:50.122Z,81.91
2023-01-11T23:50:00.985Z,82.20
2023-01-11T23:53:03.764Z,82.33
2023-01-11T23:56:07.083Z,82.39
2023-01-11T23:59:10.331Z,82.70
